Time;durP1;ratioP1;P1;durP2;ratioP2;P2;SDS_P1;SDS_P2;PMS_P1;PMS_P2;Temp;Humidity;BMP_temperature;BMP_pressure;BME280_temperature;BME280_humidity;BME280_pressure;Samples;Min_cycle;Max_cycle;Signal;HPM_P1;HPM_P2
2022/03/15 00:02:12;;;;;;;26.42;17.05;;;;;;;6.05;78.50;102750.44;5046233;28;20457;-76
2022/03/15 00:04:37;;;;;;;25.05;17.02;;;;;;;5.97;78.41;102744.69;5046127;28;20376;-76
2022/03/15 00:07:03;;;;;;;28.45;17.55;;;;;;;6.04;79.07;102738.44;5045993;28;20049;-77
2022/03/15 00:09:28;;;;;;;29.48;18.10;;;;;;;5.95;79.30;102729.25;5027965;28;20045;-76
2022/03/15 00:11:54;;;;;;;25.10;17.27;;;;;;;5.97;78.84;102742.09;5046664;28;20055;-76
2022/03/15 00:14:23;;;;;;;22.30;16.83;;;;;;;5.92;79.01;102743.97;5046469;28;20020;-76
2022/03/15 00:16:48;;;;;;;21.95;16.15;;;;;;;5.85;79.13;102728.69;5046769;28;20619;-77
2022/03/15 00:19:14;;;;;;;25.35;15.90;;;;;;;5.82;79.48;102723.63;5046513;28;20115;-77
2022/03/15 00:21:39;;;;;;;23.20;15.35;;;;;;;5.85;79.12;102730.44;5028875;28;20120;-77
2022/03/15 00:24:07;;;;;;;24.30;16.05;;;;;;;5.82;79.65;102733.91;5046657;28;20020;-78
2022/03/15 00:26:35;;;;;;;23.90;16.27;;;;;;;5.81;80.38;102728.84;5046567;28;20025;-77
2022/03/15 00:29:00;;;;;;;21.77;14.55;;;;;;;5.77;80.98;102725.50;5046564;28;20062;-77
2022/03/15 00:31:25;;;;;;;23.73;15.93;;;;;;;5.72;81.40;102722.22;5046589;28;20025;-77
2022/03/15 00:33:51;;;;;;;20.63;15.55;;;;;;;5.71;81.36;102720.53;5028455;28;20123;-79
2022/03/15 00:36:16;;;;;;;21.63;16.20;;;;;;;5.71;81.83;102722.28;5027528;28;20023;-77
2022/03/15 00:38:42;;;;;;;22.00;14.77;;;;;;;5.74;81.51;102715.31;5045916;28;20321;-77
2022/03/15 00:41:08;;;;;;;20.90;14.82;;;;;;;5.71;81.73;102710.25;5046292;28;20071;-79
2022/03/15 00:43:34;;;;;;;24.05;14.82;;;;;;;5.75;81.35;102713.56;5045632;28;20088;-77
2022/03/15 00:46:00;;;;;;;21.13;15.52;;;;;;;5.74;81.60;102717.88;5045898;28;20476;-76
2022/03/15 00:48:26;;;;;;;22.33;15.70;;;;;;;5.72;81.41;102719.66;5045606;28;20033;-77
2022/03/15 00:50:51;;;;;;;25.52;17.60;;;;;;;5.77;81.32;102716.94;5045891;28;20388;-76
2022/03/15 00:53:17;;;;;;;28.70;18.08;;;;;;;5.83;81.08;102722.72;5044710;28;20044;-76
2022/03/15 00:55:42;;;;;;;26.50;17.63;;;;;;;5.85;81.40;102723.53;5046612;28;20401;-77
2022/03/15 00:58:10;;;;;;;27.27;19.63;;;;;;;5.86;81.52;102724.38;5046063;28;20381;-77
2022/03/15 01:00:35;;;;;;;26.98;20.02;;;;;;;5.80;81.78;102720.25;5045572;28;20021;-76
2022/03/15 01:03:02;;;;;;;24.50;19.65;;;;;;;5.84;81.73;102715.84;5045866;28;20044;-77
2022/03/15 01:05:28;;;;;;;24.85;19.27;;;;;;;5.77;81.70;102715.19;5027341;28;20591;-76
2022/03/15 01:07:53;;;;;;;22.88;18.23;;;;;;;5.78;81.92;102716.88;5027542;28;20036;-76
2022/03/15 01:10:20;;;;;;;23.98;17.40;;;;;;;5.77;81.99;102717.78;5027418;28;20480;-76
2022/03/15 01:12:45;;;;;;;32.88;20.40;;;;;;;5.75;81.87;102716.16;5027862;28;20787;-77
2022/03/15 01:15:11;;;;;;;27.88;20.20;;;;;;;5.68;82.32;102707.78;5030686;28;20052;-76
2022/03/15 01:17:36;;;;;;;27.70;20.45;;;;;;;5.74;81.87;102715.31;5049578;28;20060;-76
2022/03/15 01:20:07;;;;;;;29.98;22.95;;;;;;;5.72;82.38;102703.34;5031622;28;20074;-76
2022/03/15 01:22:33;;;;;;;32.33;25.55;;;;;;;5.72;82.68;102700.78;5049232;28;20028;-76
2022/03/15 01:24:58;;;;;;;35.92;27.20;;;;;;;5.76;82.49;102703.22;5049511;28;20037;-77
2022/03/15 01:27:23;;;;;;;38.47;28.55;;;;;;;5.75;82.82;102701.53;5031516;28;20418;-78
2022/03/15 01:29:49;;;;;;;36.90;27.58;;;;;;;5.78;83.90;102698.84;5049366;28;20063;-76
2022/03/15 01:32:16;;;;;;;38.05;28.65;;;;;;;5.78;83.14;102704.00;5049187;28;20407;-77
2022/03/15 01:34:41;;;;;;;36.75;27.17;;;;;;;5.78;83.89;102693.72;5048783;28;20406;-78
2022/03/15 01:37:07;;;;;;;35.35;26.55;;;;;;;5.77;82.96;102684.31;5048840;28;20116;-77
2022/03/15 01:39:32;;;;;;;34.42;27.05;;;;;;;5.81;83.11;102679.91;5046533;28;20115;-77
2022/03/15 01:41:58;;;;;;;36.38;26.73;;;;;;;5.80;83.13;102678.22;5048769;28;20067;-77
2022/03/15 01:44:24;;;;;;;34.33;27.02;;;;;;;5.82;82.61;102679.84;5048478;28;20053;-78
2022/03/15 01:46:50;;;;;;;33.97;27.02;;;;;;;5.80;83.28;102689.38;5049318;28;20457;-78
2022/03/15 01:49:16;;;;;;;31.45;26.20;;;;;;;5.78;83.38;102669.69;5048777;28;20047;-78
2022/03/15 01:51:43;;;;;;;31.40;25.98;;;;;;;5.77;82.89;102668.00;5048653;28;20056;-78
2022/03/15 01:54:10;;;;;;;34.10;27.77;;;;;;;5.80;82.74;102673.09;5049619;28;20035;-77
2022/03/15 01:56:40;;;;;;;33.70;28.08;;;;;;;5.73;83.11;102672.41;5048991;28;20025;-76
2022/03/15 01:59:08;;;;;;;33.50;26.85;;;;;;;5.76;83.09;102677.47;5045486;28;20065;-78
2022/03/15 02:01:33;;;;;;;34.90;27.13;;;;;;;5.73;82.99;102662.09;5048769;28;20024;-77
2022/03/15 02:03:59;;;;;;;35.38;27.88;;;;;;;5.71;83.23;102658.75;5048558;28;20290;-77
2022/03/15 02:06:24;;;;;;;39.40;28.95;;;;;;;5.69;83.32;102655.41;5047585;28;20060;-77
2022/03/15 02:08:50;;;;;;;33.72;27.95;;;;;;;5.76;83.19;102667.19;5048754;28;20037;-77
2022/03/15 02:11:16;;;;;;;34.35;28.17;;;;;;;5.75;83.94;102660.34;5048795;28;20594;-76
2022/03/15 02:13:41;;;;;;;34.97;27.67;;;;;;;5.76;82.92;102662.03;5048913;28;20127;-77
2022/03/15 02:16:07;;;;;;;33.63;28.95;;;;;;;5.73;83.08;102656.97;5048744;28;20079;-76
2022/03/15 02:18:32;;;;;;;35.03;27.95;;;;;;;5.70;83.12;102662.22;5048547;28;20041;-78
2022/03/15 02:20:58;;;;;;;33.03;27.38;;;;;;;5.72;82.79;102655.28;5030651;28;20467;-77
2022/03/15 02:23:23;;;;;;;34.67;27.42;;;;;;;5.73;83.00;102651.81;5048355;28;20043;-76
2022/03/15 02:25:48;;;;;;;34.72;26.77;;;;;;;5.74;82.98;102662.97;5029846;28;20123;-76
2022/03/15 02:28:14;;;;;;;33.30;27.52;;;;;;;5.68;82.88;102653.72;5048034;28;20262;-76
2022/03/15 02:30:39;;;;;;;35.10;26.92;;;;;;;5.67;82.95;102641.72;5048357;28;20503;-77
2022/03/15 02:33:04;;;;;;;33.67;26.60;;;;;;;5.69;82.33;102639.94;5048042;28;20607;-76
2022/03/15 02:35:30;;;;;;;32.65;25.33;;;;;;;5.65;82.78;102628.06;5047580;28;20116;-77
2022/03/15 02:37:55;;;;;;;33.03;25.90;;;;;;;5.72;82.15;102639.00;5047997;28;20769;-79
2022/03/15 02:40:21;;;;;;;31.48;25.02;;;;;;;5.64;82.35;102625.53;5047469;28;20043;-79
2022/03/15 02:42:46;;;;;;;34.10;26.90;;;;;;;5.68;82.37;102633.13;5048146;28;20040;-79
2022/03/15 02:45:13;;;;;;;32.08;25.75;;;;;;;5.68;82.31;102632.25;5047795;28;20043;-77
2022/03/15 02:47:40;;;;;;;30.33;26.65;;;;;;;5.63;82.42;102619.56;5029973;28;20017;-77
2022/03/15 02:50:05;;;;;;;31.58;25.15;;;;;;;5.65;82.91;102612.63;5047933;28;20024;-77
2022/03/15 02:52:31;;;;;;;34.65;26.08;;;;;;;5.64;82.12;102620.41;5041816;28;20839;-77
2022/03/15 02:54:58;;;;;;;33.72;25.75;;;;;;;5.66;82.12;102616.88;5048224;28;20039;-76
2022/03/15 02:57:25;;;;;;;31.48;25.52;;;;;;;5.63;81.77;102618.72;5030356;28;20029;-76
2022/03/15 02:59:51;;;;;;;31.17;25.17;;;;;;;5.60;82.76;102617.91;5029459;28;20032;-77
2022/03/15 03:02:17;;;;;;;32.28;26.10;;;;;;;5.64;82.08;102616.09;5047026;28;20029;-76
2022/03/15 03:04:42;;;;;;;30.00;25.90;;;;;;;5.59;82.48;102621.38;5047498;28;20039;-77
2022/03/15 03:07:08;;;;;;;34.10;25.67;;;;;;;5.63;82.39;102613.56;5046364;28;20139;-77
2022/03/15 03:09:33;;;;;;;30.35;24.30;;;;;;;5.58;82.12;102613.72;5047783;28;20378;-77
2022/03/15 03:11:59;;;;;;;30.75;24.83;;;;;;;5.58;81.62;102616.28;5047355;28;20107;-76
2022/03/15 03:14:27;;;;;;;32.22;25.38;;;;;;;5.57;81.85;102609.47;5047274;28;20566;-76
2022/03/15 03:16:53;;;;;;;29.98;24.98;;;;;;;5.56;82.01;102602.59;5047383;28;20583;-77
2022/03/15 03:19:19;;;;;;;29.83;24.38;;;;;;;5.51;81.89;102599.34;5046909;28;20123;-76
2022/03/15 03:21:45;;;;;;;32.42;24.92;;;;;;;5.49;82.01;102590.81;5048150;28;20048;-77
2022/03/15 03:24:10;;;;;;;29.33;24.30;;;;;;;5.54;81.33;102592.38;5047202;28;20376;-78
2022/03/15 03:26:38;;;;;;;31.98;24.08;;;;;;;5.55;81.32;102590.63;5047513;28;20460;-76
2022/03/15 03:29:09;;;;;;;30.33;23.63;;;;;;;5.46;81.37;102580.66;5046904;28;20127;-77
2022/03/15 03:31:43;;;;;;;29.88;24.02;;;;;;;5.47;81.64;102587.47;5047323;28;20112;-78
2022/03/15 03:34:09;;;;;;;29.08;24.50;;;;;;;5.51;81.58;102591.63;5032464;28;20348;-77
2022/03/15 03:36:36;;;;;;;30.05;23.52;;;;;;;5.51;81.33;102594.22;5046615;28;20354;-77
2022/03/15 03:39:04;;;;;;;27.27;23.17;;;;;;;5.43;81.54;102586.72;5045288;28;20135;-76
2022/03/15 03:41:29;;;;;;;28.80;22.88;;;;;;;5.48;82.05;102600.28;5028773;28;20033;-77
2022/03/15 03:43:54;;;;;;;27.63;22.58;;;;;;;5.47;81.80;102597.75;5046580;28;20037;-76
2022/03/15 03:46:20;;;;;;;29.08;23.00;;;;;;;5.47;81.56;102590.03;5046486;28;20021;-77
2022/03/15 03:48:45;;;;;;;29.50;23.08;;;;;;;5.48;82.17;102594.28;5046224;28;20514;-76
2022/03/15 03:51:13;;;;;;;31.77;23.48;;;;;;;5.44;81.54;102595.28;5046381;28;20028;-77
2022/03/15 03:53:39;;;;;;;27.67;23.00;;;;;;;5.46;81.34;102590.94;5046501;28;20025;-76
2022/03/15 03:56:05;;;;;;;24.63;21.20;;;;;;;5.44;81.04;102587.56;5028288;28;20291;-78
2022/03/15 03:58:30;;;;;;;29.98;23.23;;;;;;;5.46;81.91;102585.78;5027855;28;20035;-78
2022/03/15 04:00:55;;;;;;;31.35;22.88;;;;;;;5.46;82.03;102590.94;5046164;28;20032;-76
2022/03/15 04:03:24;;;;;;;28.55;21.23;;;;;;;5.46;81.37;102596.09;5046270;28;20537;-76
2022/03/15 04:05:51;;;;;;;31.88;22.20;;;;;;;5.45;81.78;102589.22;5046666;28;20068;-78
2022/03/15 04:08:17;;;;;;;25.60;21.70;;;;;;;5.47;81.74;102595.19;5046704;28;20013;-77
2022/03/15 04:10:45;;;;;;;26.83;21.85;;;;;;;5.48;81.48;102589.16;5046323;28;20039;-77
2022/03/15 04:13:11;;;;;;;28.23;22.42;;;;;;;5.46;81.92;102601.22;5046650;28;20066;-78
2022/03/15 04:15:36;;;;;;;28.25;22.00;;;;;;;5.44;81.94;102605.56;5046291;28;20032;-77
2022/03/15 04:18:03;;;;;;;29.63;22.65;;;;;;;5.43;81.84;102596.16;5046697;28;20036;-77
2022/03/15 04:20:28;;;;;;;27.73;22.38;;;;;;;5.47;82.03;102597.75;5046781;28;20021;-78
2022/03/15 04:22:53;;;;;;;26.08;22.05;;;;;;;5.42;81.47;102591.91;5046928;28;20461;-79
2022/03/15 04:25:19;;;;;;;26.27;22.33;;;;;;;5.45;81.70;102589.22;5028579;28;20465;-78
2022/03/15 04:27:45;;;;;;;27.92;21.52;;;;;;;5.46;82.16;102591.78;5028907;28;20424;-77
2022/03/15 04:30:10;;;;;;;27.35;21.63;;;;;;;5.44;82.11;102603.00;5046563;28;20033;-77
2022/03/15 04:32:36;;;;;;;27.33;21.33;;;;;;;5.47;81.88;102602.91;5046766;28;20025;-77
2022/03/15 04:35:02;;;;;;;24.27;20.40;;;;;;;5.48;82.02;102607.16;5046818;28;20033;-77
2022/03/15 04:37:28;;;;;;;25.60;21.70;;;;;;;5.38;82.31;102587.75;5046843;28;20028;-77
2022/03/15 04:39:53;;;;;;;27.25;21.05;;;;;;;5.44;81.80;102590.97;5046791;28;20025;-77
2022/03/15 04:42:19;;;;;;;25.73;21.42;;;;;;;5.43;82.12;102591.03;5046254;28;20123;-77
2022/03/15 04:44:44;;;;;;;27.38;21.23;;;;;;;5.46;81.58;102596.09;5045921;28;20473;-77
2022/03/15 04:47:10;;;;;;;25.08;21.88;;;;;;;5.39;81.87;102584.28;5027327;28;20062;-79
2022/03/15 04:49:35;;;;;;;29.38;21.48;;;;;;;5.41;81.49;102572.22;5027915;28;20029;-79
2022/03/15 04:52:02;;;;;;;29.05;23.02;;;;;;;5.41;81.53;102582.53;5028416;28;20408;-78
2022/03/15 04:54:29;;;;;;;26.00;22.05;;;;;;;5.44;81.73;102587.56;5030235;28;20033;-76
2022/03/15 04:56:54;;;;;;;27.35;21.17;;;;;;;5.43;81.69;102571.28;5012685;28;20029;-76
2022/03/15 04:59:19;;;;;;;25.23;21.27;;;;;;;5.42;82.09;102584.19;5046326;28;20029;-78
2022/03/15 05:01:45;;;;;;;28.90;22.00;;;;;;;5.43;81.91;102580.72;5043898;28;20025;-76
2022/03/15 05:04:10;;;;;;;26.45;21.58;;;;;;;5.35;81.37;102559.56;5034230;28;20393;-77
2022/03/15 05:06:38;;;;;;;27.33;21.42;;;;;;;5.37;81.64;102570.63;5030289;28;20129;-76
2022/03/15 05:09:03;;;;;;;27.13;21.00;;;;;;;5.31;81.79;102567.38;5031061;28;20495;-76
2022/03/15 05:11:29;;;;;;;23.48;20.58;;;;;;;5.33;81.80;102575.91;5032820;28;20029;-78
2022/03/15 05:13:54;;;;;;;27.30;21.15;;;;;;;5.31;81.62;102562.22;5027827;28;20109;-78
2022/03/15 05:16:21;;;;;;;26.42;21.02;;;;;;;5.23;81.75;102559.06;5028310;28;20392;-77
2022/03/15 05:18:50;;;;;;;26.42;21.35;;;;;;;5.24;81.73;102565.88;5031957;28;20021;-77
2022/03/15 05:21:16;;;;;;;23.88;21.30;;;;;;;5.27;81.69;102560.63;5028836;28;20029;-78
2022/03/15 05:23:43;;;;;;;25.48;20.33;;;;;;;5.19;82.15;102557.47;5030819;28;20021;-76
2022/03/15 05:26:09;;;;;;;24.73;20.63;;;;;;;5.24;81.88;102559.91;5046582;28;20029;-76
2022/03/15 05:28:34;;;;;;;23.63;20.10;;;;;;;5.13;82.17;102549.94;5045864;28;20541;-77
2022/03/15 05:30:59;;;;;;;24.55;20.40;;;;;;;5.26;81.77;102564.09;5037039;28;20029;-76
2022/03/15 05:33:25;;;;;;;23.15;20.65;;;;;;;5.29;82.10;102552.88;5024559;28;20176;-76
2022/03/15 05:35:50;;;;;;;27.45;21.38;;;;;;;5.27;81.49;102563.19;5029169;28;20065;-76
2022/03/15 05:38:16;;;;;;;26.88;20.65;;;;;;;5.28;81.44;102557.19;5037996;28;20076;-77
2022/03/15 05:40:42;;;;;;;24.77;21.23;;;;;;;5.28;81.58;102567.47;5023792;28;20037;-76
2022/03/15 05:43:08;;;;;;;26.15;21.60;;;;;;;5.26;82.02;102568.41;5045953;28;20457;-77
2022/03/15 05:45:34;;;;;;;27.40;21.27;;;;;;;5.31;81.92;102561.38;5029760;28;20080;-77
2022/03/15 05:48:00;;;;;;;22.92;19.98;;;;;;;5.30;81.92;102564.84;5029408;28;20405;-77
2022/03/15 05:50:25;;;;;;;22.95;20.05;;;;;;;5.29;81.89;102552.88;5030645;28;20060;-78
2022/03/15 05:52:50;;;;;;;28.33;20.45;;;;;;;5.28;82.08;102559.75;5035283;28;20066;-77
2022/03/15 05:55:16;;;;;;;24.13;20.65;;;;;;;5.24;82.07;102553.03;5046513;28;20032;-75
2022/03/15 05:57:42;;;;;;;23.67;20.10;;;;;;;5.25;82.08;102552.13;5028801;28;20041;-77
2022/03/15 06:00:10;;;;;;;22.42;19.08;;;;;;;5.21;82.20;102559.97;5045906;28;20044;-76
2022/03/15 06:02:36;;;;;;;24.17;20.30;;;;;;;5.21;82.23;102550.53;5031981;28;20075;-76
2022/03/15 06:05:03;;;;;;;24.67;19.58;;;;;;;5.18;82.24;102545.50;5049189;28;20295;-77
2022/03/15 06:07:29;;;;;;;24.10;19.75;;;;;;;5.09;82.31;102530.34;5048999;28;20373;-76
2022/03/15 06:09:55;;;;;;;24.60;19.83;;;;;;;5.18;82.08;102550.63;5031667;28;20021;-76
2022/03/15 06:12:20;;;;;;;23.58;19.50;;;;;;;5.19;82.22;102544.59;5030363;28;20067;-76
2022/03/15 06:14:46;;;;;;;24.98;20.02;;;;;;;5.15;81.85;102530.16;5032771;28;20027;-75
2022/03/15 06:17:12;;;;;;;22.90;18.98;;;;;;;5.14;82.05;102533.63;5032312;28;20113;-77
2022/03/15 06:19:37;;;;;;;25.75;19.45;;;;;;;5.13;82.39;102531.94;5028263;28;20095;-76
2022/03/15 06:22:03;;;;;;;24.10;19.27;;;;;;;5.20;81.80;102538.56;5028960;28;20026;-76
2022/03/15 06:24:29;;;;;;;25.48;18.90;;;;;;;5.22;82.00;102541.94;5039268;28;20037;-76
2022/03/15 06:26:54;;;;;;;22.45;19.25;;;;;;;5.19;82.27;102538.63;5042092;28;20388;-76
2022/03/15 06:29:20;;;;;;;24.42;19.65;;;;;;;5.19;81.87;102539.47;5049052;28;20028;-76
2022/03/15 06:31:45;;;;;;;21.75;18.40;;;;;;;5.19;81.91;102536.88;5048990;28;20441;-76
2022/03/15 06:34:10;;;;;;;24.02;18.80;;;;;;;5.19;82.40;102538.63;5048731;28;20066;-76
2022/03/15 06:36:36;;;;;;;23.42;18.77;;;;;;;5.20;82.19;102523.13;5048672;28;20029;-76
2022/03/15 06:39:05;;;;;;;22.75;18.42;;;;;;;5.20;81.97;102530.84;5031132;28;20037;-77
2022/03/15 06:41:31;;;;;;;26.77;18.75;;;;;;;5.21;81.83;102518.81;5028305;28;20076;-76
2022/03/15 06:43:56;;;;;;;24.67;18.67;;;;;;;5.18;81.97;102519.78;5029135;28;20041;-76
2022/03/15 06:46:22;;;;;;;22.33;18.15;;;;;;;5.17;82.08;102527.53;5031555;28;20568;-76
2022/03/15 06:48:48;;;;;;;24.00;17.60;;;;;;;5.22;81.97;102520.53;5030438;28;20039;-76
2022/03/15 06:51:13;;;;;;;25.15;19.17;;;;;;;5.18;81.99;102519.78;5029968;28;20033;-76
2022/03/15 06:53:38;;;;;;;22.83;18.52;;;;;;;5.23;82.23;102517.06;5044700;28;20032;-77
2022/03/15 06:56:04;;;;;;;20.50;17.45;;;;;;;5.23;81.75;102523.03;5048720;28;20036;-76
2022/03/15 06:58:29;;;;;;;21.85;17.77;;;;;;;5.22;83.09;102521.38;5028032;28;20068;-76
2022/03/15 07:00:55;;;;;;;24.30;18.55;;;;;;;5.23;82.32;102512.75;5030432;28;20025;-77
2022/03/15 07:03:21;;;;;;;22.98;17.50;;;;;;;5.23;82.57;102511.91;5010775;28;20440;-77
2022/03/15 07:05:46;;;;;;;23.77;17.33;;;;;;;5.18;82.13;102494.06;5047799;28;20025;-77
2022/03/15 07:08:12;;;;;;;23.23;17.85;;;;;;;5.22;82.37;102500.78;5028222;28;20075;-78
2022/03/15 07:10:37;;;;;;;23.13;18.00;;;;;;;5.23;82.60;102505.03;5042124;28;20082;-78
2022/03/15 07:13:03;;;;;;;22.73;17.38;;;;;;;5.29;82.10;102504.00;5048182;28;20025;-76
2022/03/15 07:15:28;;;;;;;23.60;17.08;;;;;;;5.27;82.30;102504.03;5041950;28;20025;-76
2022/03/15 07:17:57;;;;;;;22.75;16.98;;;;;;;5.27;82.05;102510.91;5047824;28;20039;-76
2022/03/15 07:20:23;;;;;;;21.23;16.40;;;;;;;5.30;81.87;102509.09;5030071;28;20272;-76
2022/03/15 07:22:49;;;;;;;19.38;16.42;;;;;;;5.33;82.24;102521.88;5045862;28;20078;-76
2022/03/15 07:25:15;;;;;;;21.50;16.40;;;;;;;5.33;82.02;102509.00;5038390;28;20032;-76
2022/03/15 07:27:40;;;;;;;21.48;16.25;;;;;;;5.29;81.99;102515.13;5048092;28;20024;-76
2022/03/15 07:30:07;;;;;;;21.15;16.50;;;;;;;5.40;81.63;102511.38;5047603;28;20415;-76
2022/03/15 07:32:32;;;;;;;19.70;16.00;;;;;;;5.38;82.06;102500.28;5047483;28;20037;-76
2022/03/15 07:34:58;;;;;;;20.35;16.98;;;;;;;5.45;82.37;102496.59;5047441;28;20428;-76
2022/03/15 07:37:23;;;;;;;21.30;16.33;;;;;;;5.42;82.16;102486.41;5044685;28;20029;-76
2022/03/15 07:39:49;;;;;;;22.33;15.98;;;;;;;5.36;82.21;102476.34;5012798;28;20033;-77
2022/03/15 07:42:14;;;;;;;22.83;16.35;;;;;;;5.45;82.06;102481.16;5032222;28;20030;-76
2022/03/15 07:44:44;;;;;;;19.75;15.82;;;;;;;5.45;81.72;102491.44;5020939;28;20024;-76
2022/03/15 07:47:10;;;;;;;22.67;16.45;;;;;;;5.47;82.36;102487.13;5047319;28;20039;-78
2022/03/15 07:49:36;;;;;;;20.83;15.52;;;;;;;5.50;82.47;102484.41;5042572;28;20624;-76
2022/03/15 07:52:03;;;;;;;20.65;16.05;;;;;;;5.49;82.44;102485.31;5041190;28;20499;-79
2022/03/15 07:54:29;;;;;;;20.67;15.95;;;;;;;5.44;82.55;102469.19;5047228;28;20046;-77
2022/03/15 07:56:54;;;;;;;19.35;16.48;;;;;;;5.54;82.60;102486.00;5046762;28;20519;-77
2022/03/15 07:59:20;;;;;;;21.00;15.88;;;;;;;5.50;82.20;102484.41;5046989;28;20421;-77
2022/03/15 08:01:45;;;;;;;24.08;16.58;;;;;;;5.52;82.66;102487.81;5042950;28;20480;-76
2022/03/15 08:04:10;;;;;;;21.10;16.05;;;;;;;5.55;82.37;102483.38;5031568;28;20033;-77
2022/03/15 08:06:36;;;;;;;20.33;15.27;;;;;;;5.60;81.81;102490.94;5036963;28;20056;-77
2022/03/15 08:09:03;;;;;;;20.65;15.93;;;;;;;5.61;81.80;102497.75;5036261;28;20420;-76
2022/03/15 08:11:29;;;;;;;21.58;15.85;;;;;;;5.65;81.86;102509.66;5038812;28;20037;-77
2022/03/15 08:13:54;;;;;;;18.90;15.50;;;;;;;5.67;82.20;102505.28;5047269;28;20021;-76
2022/03/15 08:16:24;;;;;;;18.38;14.95;;;;;;;5.69;81.58;102506.09;5047531;28;20520;-76
2022/03/15 08:18:51;;;;;;;20.45;15.40;;;;;;;5.69;81.95;102500.94;5046792;28;20475;-76
2022/03/15 08:21:18;;;;;;;19.48;15.10;;;;;;;5.77;82.16;102501.50;5018978;28;20037;-75
2022/03/15 08:23:45;;;;;;;19.75;14.63;;;;;;;5.74;82.04;102499.06;5032678;28;20025;-76
2022/03/15 08:26:10;;;;;;;17.90;14.55;;;;;;;5.81;81.44;102485.06;5027026;28;20025;-75
2022/03/15 08:28:36;;;;;;;18.30;14.48;;;;;;;5.82;81.70;102480.75;5028591;28;20031;-75
2022/03/15 08:31:01;;;;;;;22.13;14.90;;;;;;;5.81;81.59;102479.91;5030763;28;20087;-75
2022/03/15 08:33:27;;;;;;;20.50;14.07;;;;;;;5.89;80.68;102477.06;5046453;28;20116;-75
2022/03/15 08:35:52;;;;;;;19.45;14.60;;;;;;;5.92;81.21;102481.31;5042515;28;20518;-76
2022/03/15 08:38:18;;;;;;;19.85;14.80;;;;;;;5.93;81.20;102472.69;5045100;28;20376;-75
2022/03/15 08:40:43;;;;;;;17.77;14.02;;;;;;;5.95;81.30;102481.19;5040904;28;20073;-74
2022/03/15 08:43:09;;;;;;;22.13;14.65;;;;;;;5.95;81.40;102476.03;5046748;28;20063;-76
2022/03/15 08:45:35;;;;;;;21.75;14.35;;;;;;;5.98;81.31;102470.78;5044439;28;20035;-76
2022/03/15 08:48:01;;;;;;;17.48;13.55;;;;;;;6.01;81.01;102460.34;5030694;28;20021;-74
2022/03/15 08:50:27;;;;;;;15.15;13.00;;;;;;;6.06;80.96;102461.03;5028024;28;20025;-76
2022/03/15 08:52:55;;;;;;;20.65;14.13;;;;;;;6.10;80.34;102460.03;5025479;28;20361;-75
2022/03/15 08:55:21;;;;;;;19.75;14.18;;;;;;;6.16;81.03;102459.81;5025996;28;20035;-76
2022/03/15 08:57:47;;;;;;;19.65;14.35;;;;;;;6.19;81.70;102464.00;5039529;28;20037;-76
2022/03/15 09:00:13;;;;;;;20.92;13.50;;;;;;;6.26;81.41;102461.16;5045607;28;20480;-74
2022/03/15 09:02:38;;;;;;;19.08;13.85;;;;;;;6.26;81.38;102461.16;5046181;28;20108;-75
2022/03/15 09:05:04;;;;;;;16.50;13.82;;;;;;;6.30;81.99;102462.69;5041759;28;20104;-74
2022/03/15 09:07:32;;;;;;;19.05;14.13;;;;;;;6.35;81.34;102460.78;5028002;28;20049;-74
2022/03/15 09:09:58;;;;;;;19.67;13.40;;;;;;;6.41;81.16;102456.31;5026736;28;20136;-76
2022/03/15 09:12:24;;;;;;;20.13;13.25;;;;;;;6.39;80.77;102457.22;5028053;28;20120;-75
2022/03/15 09:14:49;;;;;;;15.85;13.02;;;;;;;6.37;80.79;102437.56;5025897;28;20479;-76
2022/03/15 09:17:15;;;;;;;20.75;13.60;;;;;;;6.46;80.63;102444.09;5026505;28;20022;-75
2022/03/15 09:19:42;;;;;;;15.93;13.07;;;;;;;6.51;81.34;102445.59;5027570;28;20025;-76
2022/03/15 09:22:08;;;;;;;18.05;13.07;;;;;;;6.55;80.69;102441.16;5028289;28;20049;-76
2022/03/15 09:24:36;;;;;;;16.77;13.07;;;;;;;6.54;81.41;102447.22;5021992;28;20056;-76
2022/03/15 09:27:02;;;;;;;16.90;12.40;;;;;;;6.60;80.60;102447.81;5046168;28;20036;-76
2022/03/15 09:29:28;;;;;;;18.23;12.57;;;;;;;6.63;80.69;102444.28;5045687;28;20044;-76
2022/03/15 09:31:53;;;;;;;19.70;12.55;;;;;;;6.67;80.12;102435.53;5045261;28;20025;-76
2022/03/15 09:34:21;;;;;;;15.48;11.43;;;;;;;6.71;80.08;102437.09;5045641;28;20028;-76
2022/03/15 09:36:46;;;;;;;16.58;12.40;;;;;;;6.72;80.49;102428.44;5029785;28;20377;-75
2022/03/15 09:39:11;;;;;;;15.05;11.70;;;;;;;6.75;80.21;102423.16;5048328;28;20166;-74
2022/03/15 09:41:39;;;;;;;17.45;12.05;;;;;;;6.80;79.46;102426.41;5048978;28;20522;-77
2022/03/15 09:44:08;;;;;;;15.35;12.07;;;;;;;6.87;79.33;102438.13;5049474;28;20376;-75
2022/03/15 09:46:41;;;;;;;15.70;11.68;;;;;;;6.87;79.93;102432.97;5049088;28;20479;-75
2022/03/15 09:49:08;;;;;;;18.17;11.75;;;;;;;6.90;79.58;102427.72;5048666;28;20051;-75
2022/03/15 09:51:35;;;;;;;17.38;11.35;;;;;;;6.96;79.22;102425.78;5048964;28;20032;-75
2022/03/15 09:54:02;;;;;;;15.50;11.52;;;;;;;7.02;78.87;102430.69;5049828;28;20032;-75
2022/03/15 09:56:28;;;;;;;16.23;11.07;;;;;;;7.03;78.75;102424.63;5047790;28;20033;-77
2022/03/15 09:58:54;;;;;;;18.90;11.10;;;;;;;7.05;79.18;102420.22;5048103;28;20036;-76
2022/03/15 10:01:19;;;;;;;16.92;11.25;;;;;;;7.11;78.36;102423.41;5034039;28;20647;-77
2022/03/15 10:03:47;;;;;;;14.88;11.18;;;;;;;7.14;78.11;102430.19;5036236;28;20025;-74
2022/03/15 10:06:14;;;;;;;16.15;11.20;;;;;;;7.19;78.32;102436.00;5042539;28;20511;-74
2022/03/15 10:08:40;;;;;;;15.82;11.15;;;;;;;7.16;77.68;102418.03;5048026;28;20055;-77
2022/03/15 10:11:05;;;;;;;17.35;11.50;;;;;;;7.26;77.74;102431.41;5046796;28;20068;-77
2022/03/15 10:13:31;;;;;;;18.92;11.65;;;;;;;7.27;77.88;102426.19;5048570;28;20724;-75
2022/03/15 10:15:59;;;;;;;15.15;11.43;;;;;;;7.27;78.15;102418.44;5048872;28;20048;-75
2022/03/15 10:18:25;;;;;;;16.85;11.65;;;;;;;7.33;78.33;102425.91;5041379;28;20550;-76
2022/03/15 10:20:51;;;;;;;15.23;11.68;;;;;;;7.36;78.42;102419.81;5047671;28;20472;-75
2022/03/15 10:23:17;;;;;;;16.17;11.25;;;;;;;7.43;78.75;102416.88;5030502;28;20040;-76
2022/03/15 10:25:47;;;;;;;17.27;11.45;;;;;;;7.45;78.91;102414.22;5048638;28;20063;-75
2022/03/15 10:28:13;;;;;;;16.67;11.80;;;;;;;7.54;78.42;102415.59;5048717;28;20032;-75
2022/03/15 10:30:40;;;;;;;18.70;11.95;;;;;;;7.57;77.58;102407.69;5048912;28;20029;-75
2022/03/15 10:33:06;;;;;;;16.25;11.88;;;;;;;7.57;77.77;102392.19;5048744;28;20021;-76
2022/03/15 10:35:36;;;;;;;15.93;10.95;;;;;;;7.63;78.09;102386.81;5048681;28;20378;-75
2022/03/15 10:38:04;;;;;;;16.55;11.20;;;;;;;7.67;77.60;102393.47;5048416;28;20079;-77
2022/03/15 10:40:44;;;;;;;17.92;11.60;;;;;;;7.71;77.77;102389.88;5033100;28;20033;-76
2022/03/15 10:43:19;;;;;;;18.70;11.90;;;;;;;7.73;76.84;102388.03;5031513;28;20103;-76
2022/03/15 10:45:47;;;;;;;18.25;11.38;;;;;;;7.77;76.98;102387.00;5029815;28;20029;-75
2022/03/15 10:48:23;;;;;;;15.68;10.82;;;;;;;7.82;77.09;102379.06;5033261;28;20071;-76
2022/03/15 10:51:00;;;;;;;16.80;11.05;;;;;;;7.86;76.94;102381.44;5034496;28;20077;-76
2022/03/15 10:53:40;;;;;;;14.63;11.27;;;;;;;7.88;76.75;102382.19;5048168;28;20044;-76
2022/03/15 10:56:31;;;;;;;18.15;12.00;;;;;;;7.93;76.94;102375.09;5048202;28;20033;-75
2022/03/15 10:59:01;;;;;;;17.55;11.68;;;;;;;7.91;77.52;102371.75;5044457;28;20045;-75
2022/03/15 11:01:29;;;;;;;17.30;11.93;;;;;;;7.93;76.92;102375.09;5047855;28;20213;-75
2022/03/15 11:04:00;;;;;;;16.30;11.15;;;;;;;7.97;76.50;102366.28;5048064;28;20036;-76
2022/03/15 11:06:44;;;;;;;16.70;11.80;;;;;;;8.02;76.73;102362.63;5047816;28;20061;-75
2022/03/15 11:09:19;;;;;;;14.95;12.00;;;;;;;7.98;76.32;102362.78;5030109;28;20021;-76
2022/03/15 11:11:59;;;;;;;16.73;12.23;;;;;;;8.03;76.41;102369.47;5047570;28;20371;-76
2022/03/15 11:14:40;;;;;;;17.50;12.52;;;;;;;8.04;76.11;102350.50;5047578;28;20040;-76